Council Blfs, Iowa
Current Conditions -  °F | °C
As of 3:52 PM on Wednesday 28 Jan 2015 (Local Time) from KOMA Reporting Station
Broken Clouds Broken Clouds  
Wind Chill: 58°   Ceiling: 25000
Heat Index: 58°   Visibility: 10mi
Dew Point: 36°   Wind: 3mph
Humidity: 44%   Direction: 210°SSW
Pressure: 29.68"   Gusts: NA
Location:  41.2617°N, 95.8608°W
Report Text: KOMA 282152Z 21003KT 10SM FEW170 BKN250 14/02 A2968 RMK AO2 SLP051 T01440022
Loading
Personal Weather Stations






























Interactive Weather Map New forecast layout! Learn more

10-Day Weather Forecast

Advertisements
Track Severe Weather on mobile